createdAt,value
2019-02-05T00:01:41.724Z,8.27
2019-02-05T00:04:12.199Z,9.57
2019-02-05T00:06:42.631Z,8.23
2019-02-05T00:09:14.074Z,9.60
2019-02-05T00:11:44.529Z,8.17
2019-02-05T00:14:15.352Z,8.03
2019-02-05T00:16:46.496Z,10.47
2019-02-05T00:19:16.931Z,9.43
2019-02-05T00:21:47.385Z,9.37
2019-02-05T00:24:18.197Z,7.23
2019-02-05T00:26:48.933Z,7.80
2019-02-05T00:29:20.158Z,10.07
2019-02-05T00:31:50.761Z,7.17
2019-02-05T00:34:21.194Z,10.87
2019-02-05T00:36:51.647Z,9.63
2019-02-05T00:39:22.077Z,11.37
2019-02-05T00:41:52.593Z,6.37
2019-02-05T00:44:23.031Z,9.37
2019-02-05T00:46:53.461Z,6.83
2019-02-05T00:49:23.933Z,8.17
2019-02-05T00:51:55.260Z,8.77
2019-02-05T00:54:25.737Z,7.77
2019-02-05T00:56:56.348Z,8.57
2019-02-05T00:59:27.078Z,7.63
2019-02-05T01:01:57.530Z,7.43
2019-02-05T01:04:27.962Z,7.03
2019-02-05T01:06:58.534Z,8.17
2019-02-05T01:09:29.474Z,7.20
2019-02-05T01:11:59.905Z,8.07
2019-02-05T01:14:30.360Z,7.80
2019-02-05T01:17:00.793Z,7.13
2019-02-05T01:19:31.280Z,7.60
2019-02-05T01:22:02.690Z,8.37
2019-02-05T01:24:33.128Z,5.90
2019-02-05T01:27:03.853Z,6.33
2019-02-05T01:29:34.551Z,7.47
2019-02-05T01:32:05.005Z,5.87
2019-02-05T01:34:35.456Z,6.30
2019-02-05T01:37:05.941Z,7.87
2019-02-05T01:39:36.366Z,7.17
2019-02-05T01:42:06.792Z,7.53
2019-02-05T01:44:37.263Z,6.90
2019-02-05T01:47:07.697Z,7.43
2019-02-05T01:49:38.560Z,7.17
2019-02-05T01:52:09.872Z,6.53
2019-02-05T01:54:40.950Z,8.03
2019-02-05T01:57:12.080Z,6.37
2019-02-05T01:59:42.516Z,6.23
2019-02-05T02:02:13.918Z,7.23
2019-02-05T02:04:44.385Z,8.50
2019-02-05T02:07:14.862Z,7.40
2019-02-05T02:09:45.293Z,10.17
2019-02-05T02:12:16.193Z,5.17
2019-02-05T02:14:46.694Z,5.63
2019-02-05T02:17:17.127Z,7.37
2019-02-05T02:19:47.609Z,6.50
2019-02-05T02:22:18.429Z,6.47
2019-02-05T02:24:49.162Z,6.67
2019-02-05T02:27:20.099Z,7.80
2019-02-05T02:29:51.000Z,7.30
2019-02-05T02:32:21.473Z,5.50
2019-02-05T02:34:51.907Z,6.63
2019-02-05T02:37:22.639Z,5.73
2019-02-05T02:39:53.105Z,7.47
2019-02-05T02:42:23.540Z,6.87
2019-02-05T02:44:54.027Z,7.23
2019-02-05T02:47:27.707Z,9.10
2019-02-05T02:49:56.904Z,6.23
2019-02-05T02:52:27.370Z,7.53
2019-02-05T02:54:57.803Z,7.77
2019-02-05T02:57:28.457Z,8.03
2019-02-05T02:59:58.897Z,7.13
2019-02-05T03:02:29.332Z,7.67
2019-02-05T03:04:59.968Z,7.43
2019-02-05T03:07:30.410Z,9.13
2019-02-05T03:10:01.295Z,7.07
2019-02-05T03:12:32.711Z,8.70
2019-02-05T03:15:03.168Z,9.20
2019-02-05T03:17:34.642Z,10.43
2019-02-05T03:20:06.051Z,9.23
2019-02-05T03:22:36.573Z,7.73
2019-02-05T03:25:08.473Z,8.77
2019-02-05T03:27:38.912Z,8.97
2019-02-05T03:30:12.734Z,9.67
2019-02-05T03:32:43.172Z,11.90
2019-02-05T03:35:13.990Z,8.40
2019-02-05T03:37:44.624Z,9.97
2019-02-05T03:40:53.168Z,9.27
2019-02-05T03:43:24.458Z,11.97
2019-02-05T03:45:56.475Z,9.17
2019-02-05T03:48:28.189Z,7.93
2019-02-05T03:51:24.049Z,7.70
2019-02-05T03:54:05.691Z,8.87
2019-02-05T03:57:00.448Z,9.10
2019-02-05T04:00:06.695Z,8.47
2019-02-05T04:03:06.933Z,9.23
2019-02-05T04:06:20.976Z,8.17
2019-02-05T04:09:12.361Z,10.10
2019-02-05T04:12:21.527Z,8.80
2019-02-05T04:15:21.622Z,10.00
2019-02-05T04:18:41.846Z,8.63
2019-02-05T04:21:31.908Z,9.33
2019-02-05T04:24:28.374Z,10.20
2019-02-05T04:27:24.103Z,9.73
2019-02-05T04:30:50.737Z,9.57
2019-02-05T04:33:43.348Z,8.63
2019-02-05T04:36:53.988Z,7.57
2019-02-05T04:40:14.717Z,7.63
2019-02-05T04:43:14.695Z,8.80
2019-02-05T04:46:35.806Z,7.40
2019-02-05T04:49:39.433Z,8.23
2019-02-05T04:52:55.061Z,8.13
2019-02-05T04:55:59.960Z,8.67
2019-02-05T04:58:56.029Z,7.17
2019-02-05T05:01:52.716Z,8.50
2019-02-05T05:05:01.201Z,8.60
2019-02-05T05:08:11.153Z,8.73
2019-02-05T05:10:41.585Z,9.23
2019-02-05T05:13:12.053Z,10.00
2019-02-05T05:15:42.866Z,10.10
2019-02-05T05:18:15.556Z,9.30
2019-02-05T05:20:46.268Z,8.23
2019-02-05T05:23:16.838Z,8.20
2019-02-05T05:25:47.694Z,8.43
2019-02-05T05:28:18.231Z,8.77
2019-02-05T05:30:49.084Z,7.17
2019-02-05T05:33:19.521Z,9.83
2019-02-05T05:35:50.013Z,8.17
2019-02-05T05:38:21.173Z,7.67
2019-02-05T05:40:51.604Z,7.40
2019-02-05T05:43:22.553Z,9.50
2019-02-05T05:45:53.436Z,9.90
2019-02-05T05:48:24.501Z,8.83
2019-02-05T05:50:54.938Z,9.17
2019-02-05T05:53:25.430Z,9.07
2019-02-05T05:55:55.907Z,9.37
2019-02-05T05:58:26.349Z,9.53
2019-02-05T06:00:57.536Z,10.03
2019-02-05T06:03:28.303Z,9.13
2019-02-05T06:05:59.115Z,8.00
2019-02-05T06:08:29.588Z,9.90
2019-02-05T06:11:00.286Z,10.60
2019-02-05T06:13:31.160Z,8.90
2019-02-05T06:16:01.952Z,9.47
2019-02-05T06:18:33.038Z,9.83
2019-02-05T06:21:04.389Z,9.67
2019-02-05T06:23:34.855Z,10.60
2019-02-05T06:26:05.403Z,10.07
2019-02-05T06:28:35.910Z,10.97
2019-02-05T06:31:06.369Z,11.47
2019-02-05T06:33:37.238Z,10.70
2019-02-05T06:36:07.710Z,10.47
2019-02-05T06:38:38.614Z,12.23
2019-02-05T06:41:09.235Z,11.00
2019-02-05T06:43:40.386Z,10.53
2019-02-05T06:46:10.835Z,12.63
2019-02-05T06:48:41.325Z,13.23
2019-02-05T06:51:11.773Z,13.30
2019-02-05T06:53:42.791Z,13.50
2019-02-05T06:56:13.278Z,12.33
2019-02-05T06:58:46.374Z,13.30
2019-02-05T07:01:16.075Z,14.03
2019-02-05T07:03:46.535Z,14.23
2019-02-05T07:06:17.027Z,12.10
2019-02-05T07:08:47.842Z,15.90
2019-02-05T07:11:18.907Z,14.53
2019-02-05T07:13:49.723Z,16.07
2019-02-05T07:16:20.176Z,16.53
2019-02-05T07:18:50.621Z,16.10
2019-02-05T07:21:21.096Z,16.97
2019-02-05T07:23:51.583Z,17.53
2019-02-05T07:26:22.795Z,17.70
2019-02-05T07:28:58.438Z,15.60
2019-02-05T07:31:25.909Z,15.73
2019-02-05T07:33:56.359Z,16.10
2019-02-05T07:36:26.839Z,17.27
2019-02-05T07:38:58.014Z,17.03
2019-02-05T07:41:28.895Z,16.53
2019-02-05T07:43:59.344Z,18.40
2019-02-05T07:46:29.790Z,20.27
2019-02-05T07:49:00.288Z,18.90
2019-02-05T07:51:30.735Z,16.83
2019-02-05T07:54:01.180Z,16.60
2019-02-05T07:56:31.669Z,19.43
2019-02-05T07:59:09.846Z,20.87
2019-02-05T08:01:34.778Z,23.47
2019-02-05T08:04:05.534Z,20.47
2019-02-05T08:06:36.426Z,22.73
2019-02-05T08:09:10.124Z,22.73
2019-02-05T08:11:41.492Z,22.33
2019-02-05T08:14:12.219Z,26.07
2019-02-05T08:16:43.046Z,25.23
2019-02-05T08:19:13.496Z,21.87
2019-02-05T08:21:43.976Z,23.73
2019-02-05T08:24:14.426Z,23.60
2019-02-05T08:26:44.966Z,22.43
2019-02-05T08:29:21.715Z,25.00
2019-02-05T08:31:47.738Z,24.20
2019-02-05T08:34:18.229Z,24.17
2019-02-05T08:36:48.668Z,22.30
2019-02-05T08:39:19.166Z,24.47
2019-02-05T08:41:49.695Z,24.43
2019-02-05T08:44:20.167Z,25.37
2019-02-05T08:46:50.646Z,28.53
2019-02-05T08:49:22.326Z,25.00
2019-02-05T08:51:52.834Z,25.43
2019-02-05T08:54:23.292Z,26.93
2019-02-05T08:56:53.899Z,26.77
2019-02-05T08:59:25.070Z,22.63
2019-02-05T09:01:56.223Z,28.80
2019-02-05T09:04:26.719Z,26.20
2019-02-05T09:06:57.898Z,25.03
2019-02-05T09:09:28.346Z,26.27
2019-02-05T09:11:58.826Z,25.83
2019-02-05T09:14:29.590Z,24.73
2019-02-05T09:17:00.430Z,23.97
2019-02-05T09:19:31.270Z,22.70
2019-02-05T09:22:01.908Z,21.47
2019-02-05T09:24:32.390Z,24.67
2019-02-05T09:27:03.763Z,24.30
2019-02-05T09:29:34.530Z,25.10
2019-02-05T09:32:05.520Z,22.80
2019-02-05T09:34:35.970Z,23.13
2019-02-05T09:37:06.462Z,23.10
2019-02-05T09:39:37.086Z,27.13
2019-02-05T09:42:07.854Z,24.97
2019-02-05T09:44:38.307Z,23.23
2019-02-05T09:47:08.753Z,23.80
2019-02-05T09:49:39.598Z,24.97
2019-02-05T09:52:10.148Z,23.73
2019-02-05T09:54:40.644Z,21.27
2019-02-05T09:57:11.366Z,21.00
2019-02-05T09:59:45.488Z,21.67
2019-02-05T10:02:14.618Z,19.30
2019-02-05T10:04:45.059Z,19.23
2019-02-05T10:07:15.575Z,19.03
2019-02-05T10:09:46.029Z,21.63
2019-02-05T10:12:16.894Z,20.47
2019-02-05T10:14:47.674Z,20.00
2019-02-05T10:17:18.129Z,18.67
2019-02-05T10:19:48.609Z,19.63
2019-02-05T10:22:19.069Z,18.87
2019-02-05T10:24:50.105Z,19.10
2019-02-05T10:27:21.267Z,17.87
2019-02-05T10:29:57.889Z,20.93
2019-02-05T10:32:23.927Z,19.73
2019-02-05T10:34:54.426Z,21.43
2019-02-05T10:37:24.951Z,18.47
2019-02-05T10:39:56.352Z,18.57
2019-02-05T10:42:27.654Z,20.50
2019-02-05T10:44:58.153Z,19.17
2019-02-05T10:47:28.619Z,17.87
2019-02-05T10:49:59.227Z,19.37
2019-02-05T10:52:30.012Z,19.20
2019-02-05T10:55:01.069Z,20.07
2019-02-05T10:57:31.614Z,19.97
2019-02-05T11:00:09.126Z,21.43
2019-02-05T11:02:34.278Z,23.50
2019-02-05T11:05:05.846Z,22.60
2019-02-05T11:07:36.639Z,21.13
2019-02-05T11:10:08.911Z,20.70
2019-02-05T11:12:39.412Z,25.70
2019-02-05T11:15:12.708Z,21.37
2019-02-05T11:17:43.225Z,20.37
2019-02-05T11:20:16.339Z,24.47
2019-02-05T11:22:47.818Z,21.53
2019-02-05T11:25:18.633Z,23.57
2019-02-05T11:27:49.712Z,25.23
2019-02-05T11:30:26.370Z,25.40
2019-02-05T11:32:57.108Z,22.57
2019-02-05T11:35:27.882Z,23.10
2019-02-05T11:37:58.355Z,24.40
2019-02-05T11:40:31.975Z,23.53
2019-02-05T11:43:02.644Z,28.37
2019-02-05T11:45:33.577Z,29.13
2019-02-05T11:48:05.171Z,27.20
2019-02-05T11:50:36.027Z,29.90
2019-02-05T11:53:06.623Z,24.40
2019-02-05T11:55:37.259Z,27.90
2019-02-05T11:58:07.997Z,26.30
2019-02-05T12:00:56.483Z,29.53
2019-02-05T12:03:27.011Z,29.27
2019-02-05T12:05:57.503Z,26.40
2019-02-05T12:08:28.002Z,28.63
2019-02-05T12:10:58.466Z,29.30
2019-02-05T12:13:29.072Z,30.87
2019-02-05T12:15:59.566Z,31.47
2019-02-05T12:18:30.444Z,28.60
2019-02-05T12:21:00.982Z,29.80
2019-02-05T12:23:32.818Z,29.80
2019-02-05T12:26:03.340Z,28.63
2019-02-05T12:28:34.618Z,32.83
2019-02-05T12:31:05.487Z,31.13
2019-02-05T12:33:36.273Z,27.60
2019-02-05T12:36:07.244Z,30.90
2019-02-05T12:38:38.472Z,29.63
2019-02-05T12:41:08.918Z,28.93
2019-02-05T12:43:39.375Z,28.90
2019-02-05T12:46:10.779Z,29.07
2019-02-05T12:48:41.455Z,27.73
2019-02-05T12:51:12.131Z,28.90
2019-02-05T12:53:43.039Z,30.20
2019-02-05T12:56:13.575Z,27.87
2019-02-05T12:58:44.487Z,28.00
2019-02-05T13:01:14.943Z,28.43
2019-02-05T13:03:45.491Z,29.63
2019-02-05T13:06:15.938Z,30.43
2019-02-05T13:08:46.431Z,31.60
2019-02-05T13:11:16.920Z,28.83
2019-02-05T13:13:47.599Z,26.83
2019-02-05T13:16:18.395Z,30.40
2019-02-05T13:18:51.817Z,30.10
2019-02-05T13:21:21.398Z,30.47
2019-02-05T13:23:51.979Z,31.10
2019-02-05T13:26:22.450Z,33.30
2019-02-05T13:28:53.418Z,32.27
2019-02-05T13:31:24.316Z,33.27
2019-02-05T13:33:54.784Z,30.60
2019-02-05T13:36:25.282Z,29.10
2019-02-05T13:38:55.742Z,30.73
2019-02-05T13:41:29.018Z,34.13
2019-02-05T13:43:59.184Z,30.23
2019-02-05T13:46:29.638Z,28.90
2019-02-05T13:49:00.122Z,30.17
2019-02-05T13:51:30.688Z,31.43
2019-02-05T13:54:01.267Z,29.57
2019-02-05T13:56:31.722Z,34.90
2019-02-05T13:59:02.179Z,33.13
2019-02-05T14:01:32.992Z,33.63
2019-02-05T14:04:03.538Z,35.97
2019-02-05T14:06:34.977Z,33.23
2019-02-05T14:09:11.036Z,32.80
2019-02-05T14:11:41.906Z,38.27
2019-02-05T14:14:12.664Z,36.37
2019-02-05T14:16:43.442Z,35.10
2019-02-05T14:19:14.444Z,35.17
2019-02-05T14:21:46.293Z,36.67
2019-02-05T14:24:16.784Z,37.97
2019-02-05T14:26:47.624Z,39.60
2019-02-05T14:29:18.510Z,40.97
2019-02-05T14:31:49.301Z,37.43
2019-02-05T14:34:19.808Z,36.37
2019-02-05T14:36:50.290Z,38.07
2019-02-05T14:39:20.842Z,41.67
2019-02-05T14:41:52.100Z,41.47
2019-02-05T14:44:22.575Z,41.87
2019-02-05T14:46:53.468Z,37.57
2019-02-05T14:49:23.913Z,42.30
2019-02-05T14:51:54.363Z,40.63
2019-02-05T14:54:25.231Z,37.43
2019-02-05T14:56:55.680Z,39.13
2019-02-05T14:59:26.562Z,42.77
2019-02-05T15:01:57.020Z,42.00
2019-02-05T15:04:27.863Z,47.30
2019-02-05T15:06:58.326Z,45.80
2019-02-05T15:09:28.854Z,39.67
2019-02-05T15:11:59.651Z,38.93
2019-02-05T15:14:30.094Z,40.97
2019-02-05T15:17:00.565Z,42.50
2019-02-05T15:19:31.412Z,42.07
2019-02-05T15:22:01.874Z,43.03
2019-02-05T15:24:37.953Z,39.50
2019-02-05T15:27:04.616Z,40.60
2019-02-05T15:29:35.115Z,38.73
2019-02-05T15:32:05.954Z,40.43
2019-02-05T15:34:36.407Z,39.90
2019-02-05T15:37:07.870Z,41.00
2019-02-05T15:39:38.711Z,42.30
2019-02-05T15:42:09.201Z,39.07
2019-02-05T15:44:39.647Z,43.67
2019-02-05T15:47:10.151Z,45.03
2019-02-05T15:49:41.007Z,41.40
2019-02-05T15:52:11.630Z,43.57
2019-02-05T15:54:42.113Z,41.30
2019-02-05T15:57:12.567Z,45.67
2019-02-05T15:59:43.068Z,44.20
2019-02-05T16:02:13.618Z,41.83
2019-02-05T16:04:44.069Z,39.93
2019-02-05T16:07:15.324Z,39.97
2019-02-05T16:09:45.783Z,38.57
2019-02-05T16:12:16.429Z,41.47
2019-02-05T16:14:46.879Z,40.73
2019-02-05T16:17:17.335Z,40.90
2019-02-05T16:19:47.810Z,40.70
2019-02-05T16:22:19.059Z,47.63
2019-02-05T16:24:49.538Z,41.43
2019-02-05T16:27:20.011Z,44.03
2019-02-05T16:29:50.851Z,45.27
2019-02-05T16:32:21.998Z,40.33
2019-02-05T16:34:53.143Z,39.17
2019-02-05T16:37:23.628Z,46.87
2019-02-05T16:39:54.078Z,39.53
2019-02-05T16:42:24.891Z,46.80
2019-02-05T16:44:55.339Z,42.43
2019-02-05T16:47:25.816Z,45.13
2019-02-05T16:49:56.303Z,44.77
2019-02-05T16:52:26.812Z,42.47
2019-02-05T16:54:57.268Z,44.30
2019-02-05T16:57:28.310Z,45.57
2019-02-05T16:59:58.783Z,42.07
2019-02-05T17:02:29.649Z,48.83
2019-02-05T17:05:00.264Z,46.23
2019-02-05T17:07:30.766Z,46.53
2019-02-05T17:10:01.251Z,43.77
2019-02-05T17:12:31.725Z,48.03
2019-02-05T17:15:03.044Z,47.33
2019-02-05T17:17:33.601Z,45.87
2019-02-05T17:20:05.951Z,49.67
2019-02-05T17:22:36.857Z,42.33
2019-02-05T17:25:07.924Z,45.87
2019-02-05T17:27:38.732Z,41.53
2019-02-05T17:30:12.756Z,41.47
2019-02-05T17:32:43.361Z,44.00
2019-02-05T17:35:14.085Z,44.80
2019-02-05T17:37:44.747Z,43.77
2019-02-05T17:40:17.339Z,45.83
2019-02-05T17:42:48.494Z,44.03
2019-02-05T17:45:21.695Z,45.83
2019-02-05T17:47:52.173Z,51.53
2019-02-05T17:50:23.221Z,50.03
2019-02-05T17:52:53.672Z,47.07
2019-02-05T17:55:24.603Z,43.17
2019-02-05T17:57:55.058Z,48.70
2019-02-05T18:00:30.165Z,53.27
2019-02-05T18:03:01.061Z,46.17
2019-02-05T18:05:34.815Z,48.70
2019-02-05T18:08:04.014Z,46.23
2019-02-05T18:10:34.475Z,43.50
2019-02-05T18:13:05.284Z,49.53
2019-02-05T18:15:36.102Z,50.53
2019-02-05T18:18:06.944Z,54.90
2019-02-05T18:20:37.792Z,52.27
2019-02-05T18:23:08.899Z,52.87
2019-02-05T18:25:39.418Z,48.13
2019-02-05T18:28:10.713Z,49.53
2019-02-05T18:30:41.578Z,57.03
2019-02-05T18:33:12.407Z,56.33
2019-02-05T18:35:44.712Z,49.47
2019-02-05T18:38:16.153Z,48.27
2019-02-05T18:40:47.075Z,47.33
2019-02-05T18:43:17.580Z,49.77
2019-02-05T18:45:48.059Z,46.90
2019-02-05T18:48:18.877Z,45.17
2019-02-05T18:50:49.630Z,47.97
2019-02-05T18:53:21.165Z,53.60
2019-02-05T18:55:53.773Z,51.70
2019-02-05T18:58:27.927Z,50.10
2019-02-05T19:00:59.107Z,49.43
2019-02-05T19:03:30.151Z,53.57
2019-02-05T19:06:01.011Z,54.03
2019-02-05T19:08:31.771Z,53.57
2019-02-05T19:11:02.232Z,46.77
2019-02-05T19:13:32.904Z,49.07
2019-02-05T19:16:07.082Z,47.13
2019-02-05T19:18:38.769Z,51.07
2019-02-05T19:21:12.198Z,53.43
2019-02-05T19:23:43.132Z,51.90
2019-02-05T19:26:19.995Z,50.20
2019-02-05T19:28:50.822Z,47.80
2019-02-05T19:31:38.867Z,52.77
2019-02-05T19:34:11.445Z,51.30
2019-02-05T19:36:41.940Z,54.60
2019-02-05T19:39:14.526Z,44.30
2019-02-05T19:41:45.312Z,51.33
2019-02-05T19:44:16.183Z,46.60
2019-02-05T19:47:15.208Z,49.13
2019-02-05T19:49:50.951Z,46.70
2019-02-05T19:52:27.712Z,50.53
2019-02-05T19:54:58.054Z,50.93
2019-02-05T19:57:29.750Z,56.47
2019-02-05T20:00:01.167Z,52.07
2019-02-05T20:02:32.249Z,56.27
2019-02-05T20:05:02.702Z,51.00
2019-02-05T20:07:36.317Z,54.13
2019-02-05T20:10:09.260Z,55.90
2019-02-05T20:12:40.130Z,52.07
2019-02-05T20:15:10.603Z,53.53
2019-02-05T20:17:41.925Z,47.03
2019-02-05T20:20:14.101Z,56.73
2019-02-05T20:22:44.906Z,53.20
2019-02-05T20:25:15.483Z,56.60
2019-02-05T20:27:46.730Z,53.33
2019-02-05T20:30:18.012Z,53.47
2019-02-05T20:32:48.543Z,61.33
2019-02-05T20:35:19.368Z,47.87
2019-02-05T20:37:50.327Z,50.43
2019-02-05T20:40:20.868Z,54.87
2019-02-05T20:42:51.734Z,53.73
2019-02-05T20:45:22.278Z,53.07
2019-02-05T20:47:55.796Z,54.40
2019-02-05T20:50:25.489Z,60.67
2019-02-05T20:52:56.813Z,50.70
2019-02-05T20:55:29.614Z,56.23
2019-02-05T20:58:00.062Z,55.07
2019-02-05T21:00:30.642Z,50.33
2019-02-05T21:03:01.228Z,50.03
2019-02-05T21:05:31.768Z,54.57
2019-02-05T21:08:02.829Z,47.57
2019-02-05T21:10:34.328Z,50.83
2019-02-05T21:13:05.244Z,53.50
2019-02-05T21:15:36.082Z,54.53
2019-02-05T21:18:07.207Z,54.53
2019-02-05T21:20:37.689Z,49.57
2019-02-05T21:23:08.307Z,53.20
2019-02-05T21:25:38.886Z,52.13
2019-02-05T21:28:09.454Z,45.60
2019-02-05T21:30:39.944Z,47.93
2019-02-05T21:33:10.472Z,51.23
2019-02-05T21:35:41.198Z,43.20
2019-02-05T21:38:11.888Z,47.27
2019-02-05T21:40:42.341Z,44.33
2019-02-05T21:43:12.826Z,56.97
2019-02-05T21:45:43.777Z,44.17
2019-02-05T21:48:14.427Z,44.90
2019-02-05T21:50:45.650Z,52.90
2019-02-05T21:53:16.448Z,48.20
2019-02-05T21:55:47.233Z,46.63
2019-02-05T21:58:17.687Z,44.30
2019-02-05T22:00:48.171Z,41.13
2019-02-05T22:03:18.723Z,44.30
2019-02-05T22:05:49.269Z,48.47
2019-02-05T22:08:19.797Z,44.80
2019-02-05T22:10:50.278Z,41.17
2019-02-05T22:13:22.416Z,42.33
2019-02-05T22:15:52.870Z,38.40
2019-02-05T22:18:23.374Z,41.17
2019-02-05T22:20:54.191Z,36.83
2019-02-05T22:23:25.021Z,36.73
2019-02-05T22:25:55.604Z,39.20
2019-02-05T22:28:26.014Z,43.93
2019-02-05T22:30:56.893Z,47.73
2019-02-05T22:33:28.211Z,43.90
2019-02-05T22:35:59.086Z,44.93
2019-02-05T22:38:29.537Z,48.63
2019-02-05T22:40:59.994Z,48.87
2019-02-05T22:43:30.474Z,44.33
2019-02-05T22:46:01.199Z,53.60
2019-02-05T22:48:32.434Z,54.73
2019-02-05T22:51:02.969Z,47.60
2019-02-05T22:53:33.519Z,46.20
2019-02-05T22:56:04.101Z,45.33
2019-02-05T22:58:34.549Z,41.07
2019-02-05T23:01:23.358Z,46.30
2019-02-05T23:04:05.875Z,46.93
2019-02-05T23:07:10.179Z,42.97
2019-02-05T23:09:46.083Z,40.60
2019-02-05T23:12:32.679Z,39.60
2019-02-05T23:15:24.248Z,43.70
2019-02-05T23:17:54.852Z,41.83
2019-02-05T23:20:25.821Z,38.40
2019-02-05T23:22:57.197Z,43.47
2019-02-05T23:25:27.836Z,39.73
2019-02-05T23:27:58.386Z,45.13
2019-02-05T23:30:30.638Z,40.50
2019-02-05T23:33:01.130Z,34.33
2019-02-05T23:35:33.323Z,35.17
2019-02-05T23:38:04.172Z,40.70
2019-02-05T23:40:34.792Z,38.20
2019-02-05T23:43:05.800Z,36.17
2019-02-05T23:45:36.673Z,37.90
2019-02-05T23:48:08.031Z,34.43
2019-02-05T23:50:38.474Z,34.07
2019-02-05T23:53:09.291Z,35.30
2019-02-05T23:55:39.766Z,33.13
2019-02-05T23:58:10.682Z,33.27
